Aeroporto :
LOGIN :

Iscrizione | Disclaimer

   EN    FR    IT 

 










Sommario :    VFR   VFR Marginale   IFR   IFR Intensivo   IFR Molto Intensivo
Visibilità : 
Base nubi : 
>= 8 km
>= 3000ft
5 / 8 km
1000 / 3000 ft
1500m / 5 km
500 / 1000 ft
800 / 1500m
200 / 500 ft
< 800m
< 200 ft
Simboli :   Temporali  Nebbia  Neve Forte  Precipitazioni Forti  Vento > 20 kt
SIGMETs :   Varie  Temporali  Ghiacco  Turbolenza  Onda orograficha  Ceneri Vulcaniche






- Altitudine del aeroporto : 102 ft
- Codice IATA : EXT


EGTE - Exeter

ULTIMO METAR :
  • 230220Z 26007KT 220V300 9999 BKN020 16/13 Q1016

METARs OBSOLETI :
  • 230150Z 26006KT 220V300 9999 BKN020 16/13 Q1016
  • 230120Z 26008KT 230V300 9999 BKN020 17/13 Q1016
  • 230050Z 27009KT 220V300 9999 BKN022 17/13 Q1016
  • 230020Z 25008KT 220V290 9999 BKN020 17/13 Q1016
  • 222350Z 27010KT 230V300 9999 BKN020 17/14 Q1016
  • 222320Z 26008KT 230V300 9999 -RA BKN015 18/16 Q1015
  • 222250Z 25007KT 230V290 9999 BKN015 19/16 Q1015
  • 222220Z 22005KT 9999 BKN015 19/17 Q1015
  • 222150Z 18005KT 9999 BKN015 19/17 Q1015

TAF TAF EGTE
Valido dal 23 a 03 ore il 23 a 12 ore UTC


230226Z 2303/2312 28009KT 9999 BKN020
PROB30
TEMPO 2303/2309 8000 -SHRA
PROB30
TEMPO 2309/2312 BKN014



MetMap, La meteo Aeronautica in un colpo d'occhio ! - Copyright ORBIFLY Dicembre 2007 - Disclaimer

ORBIFLY MET'MAP TEAM :

Programmazione e sviluppo : Alexandra Zaïnal
Concezione : Baudouin d'Aumeries
Supporto tecnico e logistico : Manuel Goepfert
Aiuto : Marc-Olivier Méhu
Aiuto per la traduzione : Arnaldo La Scala




FONTI E CREDITI :

   NOAA